createdAt,value
2023-05-17T00:01:07.529Z,10.32
2023-05-17T00:03:34.755Z,10.32
2023-05-17T00:06:01.987Z,10.17
2023-05-17T00:08:29.206Z,10.23
2023-05-17T00:10:56.473Z,10.20
2023-05-17T00:13:23.675Z,10.13
2023-05-17T00:15:50.922Z,10.07
2023-05-17T00:18:18.262Z,10.00
2023-05-17T00:20:45.613Z,9.98
2023-05-17T00:23:16.681Z,9.99
2023-05-17T00:25:44.190Z,9.92
2023-05-17T00:28:11.414Z,9.91
2023-05-17T00:30:38.616Z,9.95
2023-05-17T00:33:05.855Z,9.96
2023-05-17T00:35:33.031Z,9.90
2023-05-17T00:38:00.259Z,9.94
2023-05-17T00:40:27.529Z,9.95
2023-05-17T00:42:55.775Z,9.96
2023-05-17T00:45:23.533Z,10.03
2023-05-17T00:47:50.913Z,10.05
2023-05-17T00:50:18.561Z,10.03
2023-05-17T00:52:46.762Z,10.11
2023-05-17T00:55:14.086Z,10.04
2023-05-17T00:57:41.444Z,10.18
2023-05-17T01:00:09.836Z,10.13
2023-05-17T01:02:44.742Z,10.17
2023-05-17T01:05:12.096Z,10.14
2023-05-17T01:07:39.293Z,10.13
2023-05-17T01:10:08.510Z,10.16
2023-05-17T01:12:44.656Z,10.19
2023-05-17T01:15:17.921Z,10.11
2023-05-17T01:18:00.804Z,10.19
2023-05-17T01:20:42.543Z,10.32
2023-05-17T01:23:54.565Z,10.27
2023-05-17T01:26:44.167Z,10.29
2023-05-17T01:29:16.637Z,10.27
2023-05-17T01:31:45.452Z,10.24
2023-05-17T01:34:13.171Z,10.18
2023-05-17T01:36:40.446Z,10.22
2023-05-17T01:39:09.226Z,10.22
2023-05-17T01:41:51.883Z,10.26
2023-05-17T01:44:33.207Z,10.26
2023-05-17T01:47:13.975Z,10.27
2023-05-17T01:49:53.203Z,10.32
2023-05-17T01:52:54.235Z,10.34
2023-05-17T01:55:49.959Z,10.21
2023-05-17T01:59:32.759Z,10.17
2023-05-17T02:03:19.544Z,10.09
2023-05-17T02:05:50.704Z,9.44
2023-05-17T02:09:33.387Z,9.73
2023-05-17T02:13:16.430Z,9.52
2023-05-17T02:16:59.955Z,9.57
2023-05-17T02:20:42.759Z,9.43
2023-05-17T02:23:15.733Z,9.30
2023-05-17T02:25:43.933Z,9.35
2023-05-17T02:29:26.562Z,9.38
2023-05-17T02:33:09.328Z,8.89
2023-05-17T02:36:52.553Z,8.85
2023-05-17T02:40:34.977Z,8.84
2023-05-17T02:44:19.066Z,8.83
2023-05-17T02:46:46.255Z,8.77
2023-05-17T02:49:13.455Z,8.78
2023-05-17T02:51:40.917Z,8.68
2023-05-17T02:54:08.119Z,8.62
2023-05-17T02:56:35.379Z,8.59
2023-05-17T02:59:03.261Z,8.54
2023-05-17T03:01:31.656Z,8.36
2023-05-17T03:03:59.123Z,8.15
2023-05-17T03:06:26.641Z,8.24
2023-05-17T03:08:53.899Z,8.27
2023-05-17T03:11:21.052Z,8.36
2023-05-17T03:13:51.636Z,8.32
2023-05-17T03:16:22.160Z,8.29
2023-05-17T03:18:51.065Z,8.08
2023-05-17T03:21:18.449Z,8.17
2023-05-17T03:23:45.886Z,8.04
2023-05-17T03:26:13.169Z,7.90
2023-05-17T03:28:46.515Z,7.98
2023-05-17T03:31:14.105Z,8.06
2023-05-17T03:33:41.463Z,8.01
2023-05-17T03:36:09.335Z,7.89
2023-05-17T03:38:36.801Z,7.75
2023-05-17T03:41:10.888Z,7.90
2023-05-17T03:43:38.571Z,7.77
2023-05-17T03:46:07.104Z,7.82
2023-05-17T03:48:36.128Z,7.87
2023-05-17T03:51:05.548Z,7.89
2023-05-17T03:53:34.178Z,7.92
2023-05-17T03:56:01.697Z,7.94
2023-05-17T03:58:29.473Z,7.82
2023-05-17T04:00:56.887Z,7.89
2023-05-17T04:03:24.094Z,7.92
2023-05-17T04:05:51.280Z,7.82
2023-05-17T04:08:18.676Z,7.92
2023-05-17T04:10:46.062Z,7.68
2023-05-17T04:13:13.256Z,7.78
2023-05-17T04:15:40.555Z,7.89
2023-05-17T04:18:08.818Z,7.95
2023-05-17T04:20:36.069Z,8.05
2023-05-17T04:23:03.355Z,8.16
2023-05-17T04:25:33.854Z,8.17
2023-05-17T04:28:03.525Z,8.22
2023-05-17T04:30:32.881Z,8.22
2023-05-17T04:33:00.995Z,8.02
2023-05-17T04:35:28.386Z,8.09
2023-05-17T04:37:56.503Z,8.08
2023-05-17T04:40:24.781Z,8.24
2023-05-17T04:42:52.931Z,8.27
2023-05-17T04:45:20.800Z,8.14
2023-05-17T04:47:51.035Z,8.28
2023-05-17T04:50:19.399Z,8.30
2023-05-17T04:52:47.740Z,8.31
2023-05-17T04:55:15.386Z,8.45
2023-05-17T04:57:43.760Z,8.50
2023-05-17T05:00:15.624Z,8.68
2023-05-17T05:02:46.707Z,8.79
2023-05-17T05:05:14.862Z,8.67
2023-05-17T05:07:44.296Z,8.65
2023-05-17T05:10:13.167Z,8.69
2023-05-17T05:12:46.376Z,8.48
2023-05-17T05:15:14.665Z,8.72
2023-05-17T05:17:51.205Z,8.78
2023-05-17T05:20:19.704Z,8.79
2023-05-17T05:22:47.110Z,9.06
2023-05-17T05:25:15.275Z,9.13
2023-05-17T05:27:47.722Z,9.35
2023-05-17T05:30:22.133Z,9.47
2023-05-17T05:32:52.318Z,9.71
2023-05-17T05:35:20.800Z,9.78
2023-05-17T05:37:48.029Z,9.92
2023-05-17T05:40:15.522Z,10.11
2023-05-17T05:42:42.992Z,10.25
2023-05-17T05:45:11.417Z,10.41
2023-05-17T05:47:40.022Z,10.45
2023-05-17T05:50:09.242Z,10.71
2023-05-17T05:52:36.569Z,10.77
2023-05-17T05:55:04.841Z,10.86
2023-05-17T05:57:32.144Z,11.09
2023-05-17T05:59:59.914Z,11.24
2023-05-17T06:02:27.182Z,11.37
2023-05-17T06:04:54.460Z,11.51
2023-05-17T06:07:21.820Z,11.56
2023-05-17T06:09:49.027Z,11.62
2023-05-17T06:12:17.809Z,11.76
2023-05-17T06:14:45.099Z,11.95
2023-05-17T06:17:12.360Z,11.95
2023-05-17T06:19:39.661Z,12.11
2023-05-17T06:22:06.935Z,12.17
2023-05-17T06:24:34.217Z,12.30
2023-05-17T06:27:01.572Z,12.38
2023-05-17T06:29:28.753Z,12.55
2023-05-17T06:31:56.870Z,12.78
2023-05-17T06:34:24.558Z,12.54
2023-05-17T06:36:52.816Z,12.71
2023-05-17T06:39:20.038Z,12.54
2023-05-17T06:41:47.259Z,12.68
2023-05-17T06:44:17.923Z,12.81
2023-05-17T06:46:45.085Z,12.91
2023-05-17T06:49:12.437Z,13.06
2023-05-17T06:51:39.736Z,13.34
2023-05-17T06:54:06.959Z,13.45
2023-05-17T06:56:34.206Z,13.63
2023-05-17T06:59:02.251Z,13.70
2023-05-17T07:01:29.500Z,13.71
2023-05-17T07:03:56.872Z,13.76
2023-05-17T07:06:24.288Z,13.94
2023-05-17T07:08:51.440Z,14.02
2023-05-17T07:11:18.669Z,14.18
2023-05-17T07:13:46.932Z,14.30
2023-05-17T07:16:14.281Z,14.40
2023-05-17T07:18:43.310Z,14.39
2023-05-17T07:21:11.910Z,14.69
2023-05-17T07:23:39.142Z,14.96
2023-05-17T07:26:06.389Z,14.68
2023-05-17T07:28:33.590Z,14.86
2023-05-17T07:31:01.662Z,15.16
2023-05-17T07:33:28.984Z,15.26
2023-05-17T07:35:56.236Z,15.65
2023-05-17T07:38:26.566Z,15.81
2023-05-17T07:40:53.711Z,15.98
2023-05-17T07:43:20.957Z,16.33
2023-05-17T07:45:48.232Z,16.53
2023-05-17T07:48:15.875Z,16.47
2023-05-17T07:50:43.961Z,16.44
2023-05-17T07:53:11.203Z,16.56
2023-05-17T07:55:38.849Z,16.87
2023-05-17T07:58:06.155Z,17.11
2023-05-17T08:00:33.779Z,16.98
2023-05-17T08:03:04.712Z,17.00
2023-05-17T08:05:32.283Z,16.54
2023-05-17T08:08:00.367Z,16.69
2023-05-17T08:10:28.132Z,16.99
2023-05-17T08:12:58.952Z,17.03
2023-05-17T08:15:26.828Z,16.69
2023-05-17T08:17:54.473Z,16.46
2023-05-17T08:20:21.975Z,16.81
2023-05-17T08:22:49.164Z,17.09
2023-05-17T08:25:24.524Z,17.60
2023-05-17T08:27:52.512Z,16.80
2023-05-17T08:30:29.006Z,16.69
2023-05-17T08:32:59.727Z,17.26
2023-05-17T08:35:28.781Z,16.90
2023-05-17T08:37:56.537Z,17.09
2023-05-17T08:40:24.300Z,17.53
2023-05-17T08:42:52.666Z,17.44
2023-05-17T08:45:20.481Z,17.75
2023-05-17T08:47:49.222Z,17.94
2023-05-17T08:50:17.639Z,18.03
2023-05-17T08:52:46.792Z,17.72
2023-05-17T08:55:16.595Z,17.82
2023-05-17T08:57:45.857Z,17.42
2023-05-17T09:00:20.097Z,17.33
2023-05-17T09:02:48.798Z,17.08
2023-05-17T09:05:16.628Z,17.23
2023-05-17T09:07:44.912Z,17.47
2023-05-17T09:10:13.609Z,17.88
2023-05-17T09:12:46.767Z,17.80
2023-05-17T09:15:20.906Z,17.73
2023-05-17T09:17:54.355Z,17.89
2023-05-17T09:20:34.901Z,18.16
2023-05-17T09:23:07.087Z,18.40
2023-05-17T09:25:34.528Z,18.90
2023-05-17T09:28:09.276Z,18.87
2023-05-17T09:30:41.987Z,19.11
2023-05-17T09:33:13.194Z,19.01
2023-05-17T09:35:43.936Z,18.51
2023-05-17T09:38:13.821Z,18.36
2023-05-17T09:40:47.960Z,18.24
2023-05-17T09:43:28.155Z,18.53
2023-05-17T09:45:59.683Z,18.33
2023-05-17T09:48:28.246Z,18.56
2023-05-17T09:50:55.643Z,18.61
2023-05-17T09:53:31.919Z,18.45
2023-05-17T09:56:05.713Z,18.92
2023-05-17T09:58:36.855Z,18.83
2023-05-17T10:01:07.531Z,18.63
2023-05-17T10:03:39.409Z,18.99
2023-05-17T10:06:13.345Z,19.27
2023-05-17T10:08:56.276Z,19.27
2023-05-17T10:11:34.249Z,19.32
2023-05-17T10:14:24.044Z,19.27
2023-05-17T10:16:53.332Z,19.20
2023-05-17T10:19:21.745Z,19.34
2023-05-17T10:21:53.355Z,19.79
2023-05-17T10:24:23.293Z,19.77
2023-05-17T10:26:52.015Z,19.93
2023-05-17T10:29:22.372Z,19.95
2023-05-17T10:31:52.702Z,20.17
2023-05-17T10:34:22.978Z,20.23
2023-05-17T10:36:50.421Z,20.33
2023-05-17T10:39:18.224Z,20.56
2023-05-17T10:41:53.048Z,20.79
2023-05-17T10:44:20.605Z,21.26
2023-05-17T10:46:59.701Z,21.39
2023-05-17T10:49:31.855Z,21.18
2023-05-17T10:52:12.869Z,19.91
2023-05-17T10:54:44.649Z,20.60
2023-05-17T10:57:51.118Z,21.05
2023-05-17T11:00:25.677Z,21.20
2023-05-17T11:03:22.954Z,21.23
2023-05-17T11:06:22.472Z,21.50
2023-05-17T11:09:16.582Z,21.32
2023-05-17T11:12:20.259Z,21.21
2023-05-17T11:14:55.668Z,21.17
2023-05-17T11:17:35.894Z,20.88
2023-05-17T11:20:10.871Z,20.66
2023-05-17T11:22:58.851Z,20.96
2023-05-17T11:25:36.125Z,21.30
2023-05-17T11:28:20.889Z,21.80
2023-05-17T11:30:54.194Z,22.14
2023-05-17T11:33:45.741Z,21.66
2023-05-17T11:36:23.217Z,21.55
2023-05-17T11:39:12.199Z,21.22
2023-05-17T11:41:48.251Z,21.18
2023-05-17T11:44:30.657Z,21.39
2023-05-17T11:47:08.758Z,21.60
2023-05-17T11:49:39.613Z,21.89
2023-05-17T11:52:08.718Z,21.94
2023-05-17T11:54:38.469Z,22.08
2023-05-17T11:57:06.902Z,22.08
2023-05-17T11:59:43.173Z,22.43
2023-05-17T12:02:10.671Z,22.15
2023-05-17T12:04:39.568Z,21.70
2023-05-17T12:07:11.151Z,21.44
2023-05-17T12:09:40.545Z,21.22
2023-05-17T12:12:10.861Z,21.40
2023-05-17T12:14:38.307Z,21.48
2023-05-17T12:17:12.111Z,21.80
2023-05-17T12:19:39.789Z,22.03
2023-05-17T12:22:12.834Z,22.28
2023-05-17T12:24:43.854Z,22.37
2023-05-17T12:27:11.698Z,22.35
2023-05-17T12:29:39.843Z,21.62
2023-05-17T12:32:10.470Z,22.25
2023-05-17T12:34:38.468Z,22.72
2023-05-17T12:37:10.525Z,22.80
2023-05-17T12:39:39.895Z,22.72
2023-05-17T12:42:09.138Z,22.95
2023-05-17T12:44:36.429Z,23.19
2023-05-17T12:47:03.694Z,23.37
2023-05-17T12:49:30.909Z,22.92
2023-05-17T12:52:05.557Z,22.66
2023-05-17T12:54:36.157Z,22.99
2023-05-17T12:57:12.907Z,23.09
2023-05-17T12:59:53.020Z,22.78
2023-05-17T13:02:21.403Z,22.91
2023-05-17T13:04:48.841Z,22.08
2023-05-17T13:07:25.798Z,22.20
2023-05-17T13:09:55.911Z,21.89
2023-05-17T13:12:24.949Z,21.66
2023-05-17T13:14:54.561Z,21.70
2023-05-17T13:17:35.669Z,21.72
2023-05-17T13:20:05.320Z,21.70
2023-05-17T13:22:34.419Z,22.16
2023-05-17T13:25:04.180Z,22.01
2023-05-17T13:29:59.188Z,22.13
2023-05-17T13:32:26.920Z,21.97
2023-05-17T13:34:54.789Z,21.74
2023-05-17T13:37:22.255Z,21.06
2023-05-17T13:39:49.692Z,21.22
2023-05-17T13:42:17.506Z,20.72
2023-05-17T13:44:44.689Z,20.70
2023-05-17T13:47:12.124Z,20.74
2023-05-17T13:49:39.454Z,20.77
2023-05-17T13:52:13.846Z,20.70
2023-05-17T13:54:41.255Z,20.78
2023-05-17T13:57:08.839Z,20.84
2023-05-17T13:59:36.005Z,21.04
2023-05-17T14:02:04.672Z,21.40
2023-05-17T14:04:32.736Z,21.01
2023-05-17T14:07:01.951Z,21.06
2023-05-17T14:09:33.901Z,21.41
2023-05-17T14:12:01.997Z,21.38
2023-05-17T14:14:30.760Z,21.53
2023-05-17T14:16:58.143Z,21.16
2023-05-17T14:19:25.433Z,21.27
2023-05-17T14:21:52.948Z,21.56
2023-05-17T14:24:20.476Z,21.93
2023-05-17T14:26:48.339Z,21.35
2023-05-17T14:29:16.571Z,21.58
2023-05-17T14:31:46.888Z,21.93
2023-05-17T14:34:14.403Z,22.11
2023-05-17T14:36:41.818Z,22.21
2023-05-17T14:39:10.133Z,22.28
2023-05-17T14:42:52.959Z,22.29
2023-05-17T14:46:35.512Z,22.22
2023-05-17T14:49:03.033Z,21.42
2023-05-17T14:52:46.015Z,21.33
2023-05-17T14:56:28.902Z,21.42
2023-05-17T15:00:11.679Z,20.83
2023-05-17T15:02:39.159Z,21.10
2023-05-17T15:06:27.938Z,20.83
2023-05-17T15:08:55.342Z,21.01
2023-05-17T15:11:23.704Z,20.93
2023-05-17T15:13:54.770Z,20.94
2023-05-17T15:16:22.893Z,20.71
2023-05-17T15:20:05.736Z,19.46
2023-05-17T15:22:33.110Z,20.14
2023-05-17T15:26:15.874Z,19.72
2023-05-17T15:29:58.040Z,19.55
2023-05-17T15:32:25.423Z,19.46
2023-05-17T15:34:52.722Z,18.97
2023-05-17T15:37:19.993Z,19.36
2023-05-17T15:40:09.886Z,19.69
2023-05-17T15:42:37.502Z,19.83
2023-05-17T15:45:06.360Z,19.82
2023-05-17T15:47:42.938Z,19.89
2023-05-17T15:50:11.347Z,19.68
2023-05-17T15:52:39.398Z,19.82
2023-05-17T15:55:07.528Z,19.66
2023-05-17T15:57:34.690Z,19.29
2023-05-17T16:00:03.243Z,19.00
2023-05-17T16:02:32.511Z,18.94
2023-05-17T16:05:02.622Z,18.97
2023-05-17T16:07:57.002Z,18.88
2023-05-17T16:10:24.436Z,19.08
2023-05-17T16:12:52.414Z,19.27
2023-05-17T16:15:19.942Z,19.89
2023-05-17T16:17:51.221Z,19.68
2023-05-17T16:20:19.179Z,19.60
2023-05-17T16:22:46.763Z,19.77
2023-05-17T16:25:25.156Z,19.38
2023-05-17T16:27:54.460Z,19.19
2023-05-17T16:30:22.948Z,19.23
2023-05-17T16:32:50.246Z,19.16
2023-05-17T16:35:20.625Z,18.88
2023-05-17T16:37:49.975Z,18.98
2023-05-17T16:40:17.302Z,18.95
2023-05-17T16:42:44.615Z,18.84
2023-05-17T16:45:12.074Z,18.79
2023-05-17T16:47:39.345Z,18.81
2023-05-17T16:50:07.610Z,18.46
2023-05-17T16:52:35.067Z,18.21
2023-05-17T16:55:03.287Z,17.78
2023-05-17T16:57:32.038Z,18.13
2023-05-17T17:00:01.509Z,18.10
2023-05-17T17:02:29.762Z,18.03
2023-05-17T17:04:58.610Z,18.03
2023-05-17T17:07:26.220Z,17.83
2023-05-17T17:09:53.749Z,17.84
2023-05-17T17:12:25.313Z,17.68
2023-05-17T17:14:54.346Z,17.56
2023-05-17T17:17:22.103Z,17.23
2023-05-17T17:19:49.470Z,17.05
2023-05-17T17:22:17.055Z,16.73
2023-05-17T17:24:48.324Z,16.63
2023-05-17T17:27:16.064Z,15.58
2023-05-17T17:29:43.691Z,15.80
2023-05-17T17:32:11.516Z,15.95
2023-05-17T17:34:38.899Z,15.78
2023-05-17T17:37:06.259Z,15.52
2023-05-17T17:39:33.474Z,15.42
2023-05-17T17:42:01.471Z,15.34
2023-05-17T17:44:28.918Z,15.47
2023-05-17T17:46:56.286Z,15.29
2023-05-17T17:49:23.470Z,15.79
2023-05-17T17:51:50.902Z,15.88
2023-05-17T17:54:18.292Z,15.76
2023-05-17T17:56:45.703Z,15.85
2023-05-17T17:59:13.382Z,15.78
2023-05-17T18:01:42.904Z,15.97
2023-05-17T18:04:11.419Z,15.68
2023-05-17T18:06:41.976Z,15.77
2023-05-17T18:09:10.033Z,15.99
2023-05-17T18:11:38.043Z,15.46
2023-05-17T18:14:07.093Z,15.51
2023-05-17T18:16:34.593Z,15.56
2023-05-17T18:19:01.886Z,15.70
2023-05-17T18:21:29.769Z,15.59
2023-05-17T18:23:57.398Z,15.75
2023-05-17T18:26:25.093Z,15.76
2023-05-17T18:28:52.583Z,15.56
2023-05-17T18:31:19.926Z,15.51
2023-05-17T18:33:47.264Z,15.44
2023-05-17T18:36:14.676Z,15.57
2023-05-17T18:38:41.860Z,15.49
2023-05-17T18:41:09.012Z,15.36
2023-05-17T18:43:36.192Z,15.13
2023-05-17T18:46:03.948Z,15.14
2023-05-17T18:48:35.869Z,15.03
2023-05-17T18:51:04.148Z,14.80
2023-05-17T18:53:31.718Z,14.84
2023-05-17T18:56:02.575Z,14.67
2023-05-17T18:58:30.196Z,14.59
2023-05-17T19:00:57.998Z,14.57
2023-05-17T19:03:26.056Z,14.52
2023-05-17T19:05:54.334Z,14.26
2023-05-17T19:08:21.730Z,14.43
2023-05-17T19:10:49.952Z,14.38
2023-05-17T19:13:17.333Z,14.34
2023-05-17T19:15:44.478Z,14.26
2023-05-17T19:18:11.742Z,14.20
2023-05-17T19:20:39.059Z,14.06
2023-05-17T19:23:06.855Z,13.91
2023-05-17T19:25:34.390Z,13.75
2023-05-17T19:28:02.066Z,13.72
2023-05-17T19:30:32.725Z,13.48
2023-05-17T19:33:00.432Z,13.16
2023-05-17T19:35:27.578Z,13.21
2023-05-17T19:37:56.897Z,13.13
2023-05-17T19:40:24.915Z,13.27
2023-05-17T19:42:52.056Z,13.10
2023-05-17T19:45:19.344Z,13.21
2023-05-17T19:47:46.664Z,12.89
2023-05-17T19:50:16.754Z,13.06
2023-05-17T19:52:43.947Z,12.70
2023-05-17T19:55:11.811Z,12.68
2023-05-17T19:57:39.028Z,12.57
2023-05-17T20:00:07.954Z,12.47
2023-05-17T20:02:35.854Z,12.51
2023-05-17T20:05:03.691Z,12.40
2023-05-17T20:07:31.116Z,12.30
2023-05-17T20:09:58.390Z,12.47
2023-05-17T20:12:26.628Z,12.26
2023-05-17T20:14:54.203Z,12.19
2023-05-17T20:17:21.607Z,12.17
2023-05-17T20:19:48.777Z,12.11
2023-05-17T20:22:17.787Z,12.13
2023-05-17T20:24:45.162Z,12.01
2023-05-17T20:27:13.055Z,11.88
2023-05-17T20:29:40.965Z,11.82
2023-05-17T20:32:08.688Z,11.86
2023-05-17T20:34:36.202Z,11.94
2023-05-17T20:37:03.336Z,11.95
2023-05-17T20:39:31.063Z,11.93
2023-05-17T20:42:01.155Z,11.86
2023-05-17T20:44:28.464Z,11.82
2023-05-17T20:46:58.865Z,11.71
2023-05-17T20:49:26.112Z,11.66
2023-05-17T20:52:00.828Z,11.24
2023-05-17T20:54:28.069Z,11.09
2023-05-17T20:56:55.249Z,11.01
2023-05-17T20:59:23.638Z,10.81
2023-05-17T21:01:50.914Z,10.90
2023-05-17T21:04:18.206Z,10.98
2023-05-17T21:06:45.343Z,10.97
2023-05-17T21:09:12.702Z,10.99
2023-05-17T21:11:40.978Z,10.98
2023-05-17T21:14:11.173Z,10.96
2023-05-17T21:16:38.469Z,11.05
2023-05-17T21:19:06.912Z,10.91
2023-05-17T21:21:37.247Z,10.83
2023-05-17T21:24:04.869Z,10.66
2023-05-17T21:26:32.135Z,10.59
2023-05-17T21:28:59.417Z,10.58
2023-05-17T21:31:28.209Z,10.32
2023-05-17T21:33:55.918Z,10.32
2023-05-17T21:36:23.105Z,10.16
2023-05-17T21:38:50.316Z,10.16
2023-05-17T21:41:17.521Z,10.24
2023-05-17T21:43:44.817Z,10.14
2023-05-17T21:46:12.042Z,10.08
2023-05-17T21:48:41.733Z,10.08
2023-05-17T21:51:09.319Z,10.05
2023-05-17T21:53:36.604Z,10.05
2023-05-17T21:56:06.871Z,9.81
2023-05-17T21:58:36.607Z,9.81
2023-05-17T22:01:04.073Z,9.76
2023-05-17T22:03:31.444Z,9.69
2023-05-17T22:05:58.708Z,9.56
2023-05-17T22:08:26.034Z,9.56
2023-05-17T22:10:55.579Z,9.50
2023-05-17T22:13:26.561Z,9.36
2023-05-17T22:15:56.922Z,9.42
2023-05-17T22:18:24.502Z,9.40
2023-05-17T22:20:53.153Z,9.44
2023-05-17T22:23:20.968Z,9.43
2023-05-17T22:25:48.543Z,9.40
2023-05-17T22:28:16.015Z,9.35
2023-05-17T22:30:46.810Z,9.35
2023-05-17T22:33:17.083Z,9.32
2023-05-17T22:35:44.248Z,9.30
2023-05-17T22:38:11.455Z,9.24
2023-05-17T22:40:38.631Z,9.20
2023-05-17T22:43:08.225Z,9.16
2023-05-17T22:45:35.393Z,9.11
2023-05-17T22:48:05.682Z,9.01
2023-05-17T22:50:33.622Z,8.74
2023-05-17T22:53:05.843Z,8.73
2023-05-17T22:55:33.195Z,8.84
2023-05-17T22:58:00.507Z,8.81
2023-05-17T23:00:27.654Z,8.80
2023-05-17T23:02:55.435Z,8.74
2023-05-17T23:05:48.871Z,8.72
2023-05-17T23:08:16.445Z,8.61
2023-05-17T23:10:44.926Z,8.62
2023-05-17T23:13:13.808Z,8.58
2023-05-17T23:15:46.526Z,8.53
2023-05-17T23:18:13.811Z,8.50
2023-05-17T23:20:42.036Z,8.48
2023-05-17T23:23:09.516Z,8.36
2023-05-17T23:25:42.389Z,8.35
2023-05-17T23:28:09.743Z,8.35
2023-05-17T23:30:38.420Z,8.33
2023-05-17T23:33:05.597Z,8.22
2023-05-17T23:35:32.833Z,8.22
2023-05-17T23:38:00.261Z,8.25
2023-05-17T23:40:27.402Z,8.22
2023-05-17T23:42:54.624Z,8.21
2023-05-17T23:45:21.985Z,8.22
2023-05-17T23:47:50.113Z,8.27
2023-05-17T23:50:17.468Z,8.15
2023-05-17T23:52:44.775Z,8.13
2023-05-17T23:55:12.022Z,8.21
2023-05-17T23:57:39.999Z,8.10
